Time;durP1;ratioP1;P1;durP2;ratioP2;P2;SDS_P1;SDS_P2;PMS_P1;PMS_P2;Temp;Humidity;BMP_temperature;BMP_pressure;BME280_temperature;BME280_humidity;BME280_pressure;Samples;Min_cycle;Max_cycle;Signal;HPM_P1;HPM_P2
2023/12/31 00:01:59;;;;;;;21.13;19.93;;;;;;;;;;5091475;28;20452;-77
2023/12/31 00:04:26;;;;;;;20.83;19.57;;;;;;;;;;5091901;28;20457;-76
2023/12/31 00:06:53;;;;;;;21.97;20.87;;;;;;;;;;5091825;28;20436;-77
2023/12/31 00:09:20;;;;;;;20.60;19.10;;;;;;;;;;5091694;28;20435;-76
2023/12/31 00:11:47;;;;;;;21.87;20.50;;;;;;;;;;5091576;28;20505;-75
2023/12/31 00:14:14;;;;;;;21.53;20.33;;;;;;;;;;5092379;28;20423;-76
2023/12/31 00:16:41;;;;;;;20.73;19.23;;;;;;;;;;5092221;28;20443;-75
2023/12/31 00:19:09;;;;;;;20.80;19.63;;;;;;;;;;5091855;28;20928;-76
2023/12/31 00:21:36;;;;;;;21.73;20.43;;;;;;;;;;5091427;28;21273;-77
2023/12/31 00:24:03;;;;;;;20.27;19.27;;;;;;;;;;5090911;28;20470;-76
2023/12/31 00:26:30;;;;;;;20.33;19.23;;;;;;;;;;5091491;28;20550;-76
2023/12/31 00:28:57;;;;;;;20.40;19.40;;;;;;;;;;5091558;28;20424;-78
2023/12/31 00:31:24;;;;;;;20.57;19.47;;;;;;;;;;5090994;28;20427;-76
2023/12/31 00:33:56;;;;;;;20.87;19.83;;;;;;;;;;5091470;28;20415;-76
2023/12/31 00:36:24;;;;;;;21.17;20.17;;;;;;;;;;5091223;28;20471;-77
2023/12/31 00:38:52;;;;;;;19.87;18.97;;;;;;;;;;5091386;28;20451;-76
2023/12/31 00:41:19;;;;;;;21.83;20.63;;;;;;;;;;5090361;28;20949;-75
2023/12/31 00:43:46;;;;;;;20.60;19.60;;;;;;;;;;5091206;28;20432;-77
2023/12/31 00:46:13;;;;;;;21.50;20.40;;;;;;;;;;5091011;28;20445;-76
2023/12/31 00:48:41;;;;;;;20.53;19.60;;;;;;;;;;5091154;28;20461;-77
2023/12/31 00:51:08;;;;;;;19.60;18.70;;;;;;;;;;5090534;28;20449;-77
2023/12/31 00:53:36;;;;;;;20.17;19.17;;;;;;;;;;5090900;28;20528;-76
2023/12/31 00:56:03;;;;;;;20.10;19.00;;;;;;;;;;5090880;28;20447;-76
2023/12/31 00:58:30;;;;;;;19.80;18.60;;;;;;;;;;5090041;28;20468;-76
2023/12/31 01:00:57;;;;;;;21.83;20.20;;;;;;;;;;5090205;28;20481;-76
2023/12/31 01:03:24;;;;;;;20.93;19.80;;;;;;;;;;5090683;28;20502;-77
2023/12/31 01:05:51;;;;;;;21.53;19.87;;;;;;;;;;5090813;28;20462;-77
2023/12/31 01:08:18;;;;;;;22.30;20.70;;;;;;;;;;5090272;28;20510;-77
2023/12/31 01:10:46;;;;;;;20.67;19.47;;;;;;;;;;5090190;28;20457;-76
2023/12/31 01:13:14;;;;;;;21.20;20.10;;;;;;;;;;5090477;28;20510;-76
2023/12/31 01:15:40;;;;;;;20.57;19.57;;;;;;;;;;5090340;28;20453;-75
2023/12/31 01:18:10;;;;;;;21.50;20.17;;;;;;;;;;5089347;28;20455;-76
2023/12/31 01:20:37;;;;;;;21.67;20.63;;;;;;;;;;5089935;28;20448;-76
2023/12/31 01:23:04;;;;;;;21.27;20.17;;;;;;;;;;5090413;28;20498;-76
2023/12/31 01:25:31;;;;;;;20.10;18.90;;;;;;;;;;5090443;28;20506;-75
2023/12/31 01:28:00;;;;;;;20.93;19.93;;;;;;;;;;5090445;28;20517;-76
2023/12/31 01:30:27;;;;;;;21.93;20.73;;;;;;;;;;5090254;28;20457;-78
2023/12/31 01:32:54;;;;;;;21.60;20.40;;;;;;;;;;5090342;28;20549;-76
2023/12/31 01:35:21;;;;;;;20.90;19.40;;;;;;;;;;5090183;28;20453;-77
2023/12/31 01:37:48;;;;;;;20.98;20.05;;;;;;;;;;5089475;28;21061;-75
2023/12/31 01:40:15;;;;;;;20.87;19.60;;;;;;;;;;5090335;28;20206;-76
2023/12/31 01:42:42;;;;;;;20.43;19.33;;;;;;;;;;5089779;28;20449;-77
2023/12/31 01:45:11;;;;;;;21.87;20.70;;;;;;;;;;5089360;28;20936;-77
2023/12/31 01:47:38;;;;;;;20.73;19.73;;;;;;;;;;5069749;28;20445;-76
2023/12/31 01:50:06;;;;;;;20.20;19.10;;;;;;;;;;5070390;28;20789;-76
2023/12/31 01:52:34;;;;;;;20.60;19.33;;;;;;;;;;5069502;28;20481;-77
2023/12/31 01:55:02;;;;;;;21.13;19.97;;;;;;;;;;5070064;28;20421;-76
2023/12/31 01:57:31;;;;;;;20.30;19.10;;;;;;;;;;5068971;28;20488;-75
2023/12/31 01:59:58;;;;;;;20.33;19.17;;;;;;;;;;5069704;28;20560;-77
2023/12/31 02:02:26;;;;;;;20.50;19.30;;;;;;;;;;5069001;28;20442;-76
2023/12/31 02:04:53;;;;;;;19.00;18.20;;;;;;;;;;5069746;28;21034;-75
2023/12/31 02:07:20;;;;;;;20.47;19.47;;;;;;;;;;5069440;28;20525;-76
2023/12/31 02:09:47;;;;;;;20.13;19.23;;;;;;;;;;5069592;28;20532;-76
2023/12/31 02:12:14;;;;;;;21.23;19.70;;;;;;;;;;5069171;28;20441;-75
2023/12/31 02:14:41;;;;;;;21.53;19.73;;;;;;;;;;5069328;28;20560;-75
2023/12/31 02:17:08;;;;;;;19.67;18.60;;;;;;;;;;5069596;28;20470;-77
2023/12/31 02:19:36;;;;;;;20.20;19.20;;;;;;;;;;5070003;28;20446;-76
2023/12/31 02:22:04;;;;;;;20.90;19.90;;;;;;;;;;5069295;28;20450;-76
2023/12/31 02:24:32;;;;;;;21.80;20.70;;;;;;;;;;5069662;28;20507;-76
2023/12/31 02:27:00;;;;;;;21.30;20.23;;;;;;;;;;5069537;28;20470;-75
2023/12/31 02:29:27;;;;;;;19.93;19.03;;;;;;;;;;5069760;28;20491;-78
2023/12/31 02:31:54;;;;;;;20.03;19.13;;;;;;;;;;5069241;28;20421;-77
2023/12/31 02:34:21;;;;;;;19.60;18.70;;;;;;;;;;5069458;28;20481;-76
2023/12/31 02:36:48;;;;;;;19.27;18.43;;;;;;;;;;5068946;28;20988;-76
2023/12/31 02:39:15;;;;;;;21.43;20.33;;;;;;;;;;5069380;28;20450;-76
2023/12/31 02:41:42;;;;;;;21.33;20.17;;;;;;;;;;5068862;28;20911;-76
2023/12/31 02:44:11;;;;;;;20.70;19.60;;;;;;;;;;5069012;28;20993;-76
2023/12/31 02:46:38;;;;;;;20.37;19.47;;;;;;;;;;5069578;28;21111;-77
2023/12/31 02:49:06;;;;;;;21.37;20.07;;;;;;;;;;5073256;28;20450;-76
2023/12/31 02:51:34;;;;;;;21.00;19.70;;;;;;;;;;5072524;28;20807;-77
2023/12/31 02:54:01;;;;;;;21.60;20.30;;;;;;;;;;5072671;28;20489;-76
2023/12/31 02:56:28;;;;;;;20.13;19.23;;;;;;;;;;5072978;28;20497;-76
2023/12/31 02:58:55;;;;;;;20.10;19.10;;;;;;;;;;5072987;28;20451;-76
2023/12/31 03:01:23;;;;;;;19.67;18.67;;;;;;;;;;5072427;28;20449;-78
2023/12/31 03:03:50;;;;;;;19.90;18.90;;;;;;;;;;5072716;28;20424;-75
2023/12/31 03:06:17;;;;;;;20.57;19.57;;;;;;;;;;5072931;28;20478;-77
2023/12/31 03:08:44;;;;;;;20.73;19.60;;;;;;;;;;5072764;28;20502;-76
2023/12/31 03:11:11;;;;;;;20.70;19.50;;;;;;;;;;5072399;28;20514;-76
2023/12/31 03:13:38;;;;;;;19.43;18.63;;;;;;;;;;5072482;28;20485;-75
2023/12/31 03:16:06;;;;;;;20.87;19.97;;;;;;;;;;5072606;28;20446;-77
2023/12/31 03:18:34;;;;;;;20.70;19.57;;;;;;;;;;5072262;28;20908;-76
2023/12/31 03:21:01;;;;;;;20.27;19.17;;;;;;;;;;5072115;28;20495;-76
2023/12/31 03:23:28;;;;;;;21.03;19.93;;;;;;;;;;5072366;28;20916;-76
2023/12/31 03:25:55;;;;;;;19.80;18.80;;;;;;;;;;5072297;28;20937;-76
2023/12/31 03:28:22;;;;;;;19.00;18.10;;;;;;;;;;5072420;28;20472;-77
2023/12/31 03:30:49;;;;;;;22.33;20.83;;;;;;;;;;5071788;28;20499;-75
2023/12/31 03:33:16;;;;;;;21.20;20.20;;;;;;;;;;5072034;28;21031;-76
2023/12/31 03:35:45;;;;;;;19.67;18.77;;;;;;;;;;5072372;28;20541;-75
2023/12/31 03:38:12;;;;;;;21.77;20.40;;;;;;;;;;5072339;28;20492;-76
2023/12/31 03:40:40;;;;;;;20.33;19.33;;;;;;;;;;5071986;28;20559;-76
2023/12/31 03:43:07;;;;;;;21.43;20.37;;;;;;;;;;5072435;28;20450;-76
2023/12/31 03:45:34;;;;;;;20.87;19.80;;;;;;;;;;5072614;28;20450;-76
2023/12/31 03:48:01;;;;;;;21.57;20.47;;;;;;;;;;5071815;28;20543;-76
2023/12/31 03:50:28;;;;;;;20.67;19.43;;;;;;;;;;5071362;28;20450;-76
2023/12/31 03:52:57;;;;;;;21.93;20.77;;;;;;;;;;5071940;28;20481;-75
2023/12/31 03:55:24;;;;;;;20.97;19.97;;;;;;;;;;5071938;28;20421;-76
2023/12/31 03:57:51;;;;;;;21.80;20.70;;;;;;;;;;5071377;28;20867;-76
2023/12/31 04:00:18;;;;;;;21.60;20.60;;;;;;;;;;5071703;28;20446;-76
2023/12/31 04:02:45;;;;;;;21.20;20.10;;;;;;;;;;5071426;28;20495;-76
2023/12/31 04:05:12;;;;;;;22.00;20.43;;;;;;;;;;5071403;28;20865;-76
2023/12/31 04:07:39;;;;;;;22.67;21.57;;;;;;;;;;5071075;28;20478;-75
2023/12/31 04:10:08;;;;;;;20.03;19.23;;;;;;;;;;5071463;28;20442;-75
2023/12/31 04:12:35;;;;;;;21.17;20.17;;;;;;;;;;5070912;28;20442;-76
2023/12/31 04:15:02;;;;;;;21.90;20.60;;;;;;;;;;5071688;28;20503;-76
2023/12/31 04:17:29;;;;;;;22.83;21.50;;;;;;;;;;5071247;28;20492;-76
2023/12/31 04:19:56;;;;;;;21.50;20.40;;;;;;;;;;5071479;28;20508;-76
2023/12/31 04:22:23;;;;;;;22.17;21.07;;;;;;;;;;5070635;28;21115;-76
2023/12/31 04:24:50;;;;;;;21.13;20.10;;;;;;;;;;5071371;28;20464;-75
2023/12/31 04:27:19;;;;;;;21.23;20.23;;;;;;;;;;5071554;28;20828;-76
2023/12/31 04:29:46;;;;;;;23.83;22.00;;;;;;;;;;5071524;28;20441;-76
2023/12/31 04:32:13;;;;;;;23.07;21.67;;;;;;;;;;5070974;28;20474;-77
2023/12/31 04:34:40;;;;;;;22.93;21.50;;;;;;;;;;5071280;28;20535;-75
2023/12/31 04:37:07;;;;;;;22.23;21.10;;;;;;;;;;5071106;28;20474;-76
2023/12/31 04:39:34;;;;;;;21.77;20.57;;;;;;;;;;5070981;28;20420;-76
2023/12/31 04:42:03;;;;;;;22.10;21.00;;;;;;;;;;5070225;28;20449;-77
2023/12/31 04:44:31;;;;;;;21.43;20.43;;;;;;;;;;5070957;28;20445;-75
2023/12/31 04:46:58;;;;;;;19.97;19.00;;;;;;;;;;5070546;28;20458;-75
2023/12/31 04:49:25;;;;;;;22.30;20.90;;;;;;;;;;5070789;28;20449;-76
2023/12/31 04:51:52;;;;;;;22.77;20.93;;;;;;;;;;5070327;28;20449;-76
2023/12/31 04:54:19;;;;;;;22.40;21.10;;;;;;;;;;5070712;28;20488;-76
2023/12/31 04:56:46;;;;;;;22.73;21.50;;;;;;;;;;5070784;28;20524;-75
2023/12/31 04:59:13;;;;;;;22.07;20.80;;;;;;;;;;5071008;28;20504;-75
2023/12/31 05:01:41;;;;;;;23.40;22.10;;;;;;;;;;5070243;28;20442;-77
2023/12/31 05:04:08;;;;;;;22.50;21.20;;;;;;;;;;5070917;28;20446;-76
2023/12/31 05:06:35;;;;;;;23.60;22.10;;;;;;;;;;5071910;28;20477;-76
2023/12/31 05:09:03;;;;;;;22.77;21.50;;;;;;;;;;5070149;28;20511;-76
2023/12/31 05:11:30;;;;;;;23.23;21.83;;;;;;;;;;5069692;28;20439;-77
2023/12/31 05:13:57;;;;;;;22.67;21.37;;;;;;;;;;5070516;28;20483;-76
2023/12/31 05:16:26;;;;;;;23.53;22.13;;;;;;;;;;5069851;28;20465;-75
2023/12/31 05:18:54;;;;;;;23.20;21.80;;;;;;;;;;5069919;28;20437;-76
2023/12/31 05:21:22;;;;;;;22.37;20.73;;;;;;;;;;5069535;28;20431;-76
2023/12/31 05:23:49;;;;;;;23.10;21.57;;;;;;;;;;5070190;28;20450;-77
2023/12/31 05:26:16;;;;;;;22.63;21.33;;;;;;;;;;5069905;28;20446;-75
2023/12/31 05:28:43;;;;;;;22.33;20.90;;;;;;;;;;5069950;28;21011;-76
2023/12/31 05:31:10;;;;;;;26.67;24.63;;;;;;;;;;5069593;28;20420;-76
2023/12/31 05:33:38;;;;;;;26.30;24.47;;;;;;;;;;5070194;28;20460;-77
2023/12/31 05:36:06;;;;;;;40.97;36.57;;;;;;;;;;5070061;28;20445;-77
2023/12/31 05:38:33;;;;;;;26.40;24.50;;;;;;;;;;5070406;28;20446;-75
2023/12/31 05:41:00;;;;;;;23.70;22.40;;;;;;;;;;5071601;28;20549;-77
2023/12/31 05:43:27;;;;;;;23.73;22.43;;;;;;;;;;5090147;28;20497;-77
2023/12/31 05:45:54;;;;;;;23.90;22.60;;;;;;;;;;5090125;28;20445;-77
2023/12/31 05:48:22;;;;;;;23.00;21.73;;;;;;;;;;5070190;28;20974;-76
2023/12/31 05:50:49;;;;;;;23.33;21.97;;;;;;;;;;5069484;28;20451;-76
2023/12/31 05:53:17;;;;;;;25.67;23.97;;;;;;;;;;5069772;28;20446;-75
2023/12/31 05:55:44;;;;;;;25.40;23.67;;;;;;;;;;5069533;28;20441;-76
2023/12/31 05:58:11;;;;;;;24.27;22.77;;;;;;;;;;5069558;28;20465;-75
2023/12/31 06:00:38;;;;;;;23.13;21.93;;;;;;;;;;5069198;28;20442;-75
2023/12/31 06:03:05;;;;;;;22.80;21.17;;;;;;;;;;5069639;28;20424;-75
2023/12/31 06:05:32;;;;;;;22.30;21.03;;;;;;;;;;5069804;28;20467;-76
2023/12/31 06:08:00;;;;;;;23.53;22.13;;;;;;;;;;5069083;28;21035;-77
2023/12/31 06:10:28;;;;;;;22.63;21.20;;;;;;;;;;5069090;28;20445;-76
2023/12/31 06:12:55;;;;;;;21.03;19.93;;;;;;;;;;5069625;28;20445;-76
2023/12/31 06:15:22;;;;;;;20.20;19.20;;;;;;;;;;5069319;28;20533;-75
2023/12/31 06:17:49;;;;;;;22.10;20.90;;;;;;;;;;5069525;28;20844;-77
2023/12/31 06:20:16;;;;;;;21.17;19.87;;;;;;;;;;5069514;28;20452;-76
2023/12/31 06:22:43;;;;;;;20.73;19.37;;;;;;;;;;5071514;28;20449;-76
2023/12/31 06:25:11;;;;;;;22.30;20.90;;;;;;;;;;5073210;28;20424;-76
2023/12/31 06:27:40;;;;;;;22.20;20.90;;;;;;;;;;5073535;28;20804;-76
2023/12/31 06:30:07;;;;;;;22.03;20.73;;;;;;;;;;5073748;28;20449;-76
2023/12/31 06:32:34;;;;;;;21.33;20.13;;;;;;;;;;5073263;28;20446;-76
2023/12/31 06:35:03;;;;;;;20.57;19.50;;;;;;;;;;5073699;28;20485;-76
2023/12/31 06:37:30;;;;;;;20.53;19.33;;;;;;;;;;5073387;28;20481;-76
2023/12/31 06:39:56;;;;;;;19.67;18.67;;;;;;;;;;5073793;28;20511;-77
2023/12/31 06:42:23;;;;;;;21.10;19.90;;;;;;;;;;5072992;28;20511;-77
2023/12/31 06:44:52;;;;;;;20.00;18.90;;;;;;;;;;5073161;28;20959;-76
2023/12/31 06:47:19;;;;;;;20.17;18.97;;;;;;;;;;5073191;28;20774;-76
2023/12/31 06:49:46;;;;;;;20.63;19.43;;;;;;;;;;5073304;28;20448;-76
2023/12/31 06:52:13;;;;;;;20.70;19.70;;;;;;;;;;5072735;28;20488;-76
2023/12/31 06:54:41;;;;;;;19.97;18.97;;;;;;;;;;5073031;28;20558;-77
2023/12/31 06:57:09;;;;;;;21.07;19.87;;;;;;;;;;5072813;28;20450;-77
2023/12/31 06:59:36;;;;;;;20.23;19.23;;;;;;;;;;5073049;28;20535;-76
2023/12/31 07:02:05;;;;;;;20.57;19.47;;;;;;;;;;5072407;28;20445;-76
2023/12/31 07:04:32;;;;;;;20.07;19.03;;;;;;;;;;5072831;28;20441;-76
2023/12/31 07:06:59;;;;;;;21.90;20.50;;;;;;;;;;5072588;28;20566;-76
2023/12/31 07:09:28;;;;;;;20.03;18.83;;;;;;;;;;5071799;28;20493;-76
2023/12/31 07:11:55;;;;;;;18.73;17.93;;;;;;;;;;5071301;28;20428;-76
2023/12/31 07:14:23;;;;;;;20.60;19.50;;;;;;;;;;5071243;28;20489;-76
2023/12/31 07:16:50;;;;;;;20.43;19.43;;;;;;;;;;5075025;28;21170;-75
2023/12/31 07:19:19;;;;;;;19.27;18.17;;;;;;;;;;5091543;28;20457;-77
2023/12/31 07:21:46;;;;;;;20.50;19.40;;;;;;;;;;5090983;28;20474;-78
2023/12/31 07:24:13;;;;;;;18.60;17.80;;;;;;;;;;5091307;28;20947;-76
2023/12/31 07:26:41;;;;;;;20.20;19.20;;;;;;;;;;5091502;28;21104;-76
2023/12/31 07:29:08;;;;;;;20.43;19.03;;;;;;;;;;5091740;28;20449;-78
2023/12/31 07:31:35;;;;;;;19.60;18.70;;;;;;;;;;5091162;28;20494;-77
2023/12/31 07:34:03;;;;;;;18.30;17.23;;;;;;;;;;5091206;28;20571;-76
2023/12/31 07:36:32;;;;;;;21.70;20.03;;;;;;;;;;5091320;28;20472;-76
2023/12/31 07:38:59;;;;;;;20.17;19.17;;;;;;;;;;5091313;28;20427;-76
2023/12/31 07:41:26;;;;;;;19.47;18.40;;;;;;;;;;5090859;28;20420;-77
2023/12/31 07:43:54;;;;;;;19.33;18.23;;;;;;;;;;5091051;28;20945;-77
2023/12/31 07:46:21;;;;;;;21.00;20.00;;;;;;;;;;5089584;28;20473;-77
2023/12/31 07:48:48;;;;;;;20.47;19.27;;;;;;;;;;5070514;28;20458;-76
2023/12/31 07:51:15;;;;;;;19.80;18.70;;;;;;;;;;5070377;28;20453;-76
2023/12/31 07:53:43;;;;;;;20.43;19.43;;;;;;;;;;5071102;28;20453;-76
2023/12/31 07:56:10;;;;;;;20.10;19.10;;;;;;;;;;5070849;28;20416;-77
2023/12/31 07:58:37;;;;;;;20.23;19.33;;;;;;;;;;5070423;28;20499;-76
2023/12/31 08:01:04;;;;;;;21.27;20.27;;;;;;;;;;5069651;28;21174;-77
2023/12/31 08:03:31;;;;;;;19.53;18.53;;;;;;;;;;5087340;28;20523;-75
2023/12/31 08:05:59;;;;;;;20.57;19.57;;;;;;;;;;5090540;28;20485;-76
2023/12/31 08:08:26;;;;;;;21.80;20.60;;;;;;;;;;5056117;28;1006014;-76
2023/12/31 08:10:54;;;;;;;20.03;19.00;;;;;;;;;;5091898;28;20211;-77
2023/12/31 08:13:22;;;;;;;20.33;19.10;;;;;;;;;;5091831;28;20910;-76
2023/12/31 08:15:49;;;;;;;19.83;18.83;;;;;;;;;;5091771;28;20538;-76
2023/12/31 08:18:16;;;;;;;18.90;18.00;;;;;;;;;;5092009;28;20465;-76
2023/12/31 08:20:43;;;;;;;19.00;18.07;;;;;;;;;;5091136;28;20505;-77
2023/12/31 08:23:10;;;;;;;18.77;17.97;;;;;;;;;;5091662;28;20452;-76
2023/12/31 08:25:37;;;;;;;18.17;17.30;;;;;;;;;;5091708;28;20798;-75
2023/12/31 08:28:06;;;;;;;18.97;18.07;;;;;;;;;;5091089;28;20448;-76
2023/12/31 08:30:34;;;;;;;20.57;19.50;;;;;;;;;;5090911;28;21283;-77
2023/12/31 08:33:01;;;;;;;19.07;18.17;;;;;;;;;;5091359;28;20440;-76
2023/12/31 08:35:28;;;;;;;19.87;18.80;;;;;;;;;;5091293;28;20459;-75
2023/12/31 08:37:55;;;;;;;19.10;18.20;;;;;;;;;;5091235;28;20469;-76
2023/12/31 08:40:22;;;;;;;18.87;17.97;;;;;;;;;;5091067;28;20472;-76
2023/12/31 08:42:49;;;;;;;19.50;18.53;;;;;;;;;;5091279;28;20925;-76
2023/12/31 08:45:18;;;;;;;19.13;18.27;;;;;;;;;;5090669;28;20437;-76
2023/12/31 08:47:45;;;;;;;19.77;18.73;;;;;;;;;;5091019;28;20461;-77
2023/12/31 08:50:12;;;;;;;18.80;18.00;;;;;;;;;;5091313;28;20453;-76
2023/12/31 08:52:40;;;;;;;19.17;18.17;;;;;;;;;;5090911;28;20431;-77
2023/12/31 08:55:08;;;;;;;18.00;17.20;;;;;;;;;;5091259;28;20806;-75
2023/12/31 08:57:35;;;;;;;19.30;18.30;;;;;;;;;;5091016;28;20472;-76
2023/12/31 09:00:02;;;;;;;17.87;17.07;;;;;;;;;;5090978;28;20441;-76
2023/12/31 09:02:31;;;;;;;19.87;18.67;;;;;;;;;;5090281;28;20945;-75
2023/12/31 09:04:58;;;;;;;19.97;18.90;;;;;;;;;;5090741;28;20448;-76
2023/12/31 09:07:25;;;;;;;18.07;17.37;;;;;;;;;;5090268;28;20976;-76
2023/12/31 09:09:52;;;;;;;18.77;17.87;;;;;;;;;;5090897;28;20483;-75
2023/12/31 09:12:19;;;;;;;19.37;18.47;;;;;;;;;;5089945;28;20445;-76
2023/12/31 09:14:46;;;;;;;19.57;18.67;;;;;;;;;;5090762;28;20484;-76
2023/12/31 09:17:13;;;;;;;21.77;20.57;;;;;;;;;;5089953;28;20516;-76
2023/12/31 09:19:42;;;;;;;18.83;18.03;;;;;;;;;;5076633;28;20532;-81
2023/12/31 09:22:09;;;;;;;18.87;17.97;;;;;;;;;;5072551;28;20449;-77
2023/12/31 09:24:36;;;;;;;19.37;18.37;;;;;;;;;;5070502;28;20449;-77
2023/12/31 09:27:03;;;;;;;18.93;18.03;;;;;;;;;;5069372;28;20469;-78
2023/12/31 09:29:30;;;;;;;18.27;17.47;;;;;;;;;;5072689;28;20449;-77
2023/12/31 09:31:58;;;;;;;19.37;18.47;;;;;;;;;;5069417;28;20435;-76
2023/12/31 09:34:25;;;;;;;18.80;17.90;;;;;;;;;;5077514;28;20457;-76
2023/12/31 09:36:53;;;;;;;18.77;17.87;;;;;;;;;;5081211;28;20976;-77
2023/12/31 09:39:20;;;;;;;18.53;17.63;;;;;;;;;;5089874;28;20452;-76
2023/12/31 09:41:50;;;;;;;18.93;17.93;;;;;;;;;;5089836;28;20506;-76
2023/12/31 09:44:19;;;;;;;18.40;17.60;;;;;;;;;;5090183;28;20407;-79
2023/12/31 09:46:51;;;;;;;18.30;17.43;;;;;;;;;;5086678;28;20474;-76
2023/12/31 09:49:18;;;;;;;18.40;17.50;;;;;;;;;;5070304;28;20454;-76
2023/12/31 09:51:45;;;;;;;19.27;18.37;;;;;;;;;;5088904;28;20530;-81
2023/12/31 09:54:15;;;;;;;18.20;17.30;;;;;;;;;;5092978;28;20449;-82
2023/12/31 09:56:42;;;;;;;18.80;17.90;;;;;;;;;;5097736;28;20518;-82
2023/12/31 09:59:09;;;;;;;20.10;19.10;;;;;;;;;;5095428;28;20492;-76
2023/12/31 10:01:37;;;;;;;19.43;18.53;;;;;;;;;;5088497;28;20485;-79
2023/12/31 10:04:04;;;;;;;19.13;18.13;;;;;;;;;;5096751;28;20440;-81
2023/12/31 10:06:32;;;;;;;19.70;18.50;;;;;;;;;;5091694;28;20466;-83
2023/12/31 10:08:59;;;;;;;19.40;18.30;;;;;;;;;;5077843;28;20937;-81
2023/12/31 10:11:27;;;;;;;19.63;18.63;;;;;;;;;;5091546;28;20497;-81
2023/12/31 10:13:54;;;;;;;18.73;17.80;;;;;;;;;;5095407;28;20964;-76
2023/12/31 10:16:21;;;;;;;18.70;17.70;;;;;;;;;;5090030;28;20553;-79
2023/12/31 10:18:48;;;;;;;20.00;18.80;;;;;;;;;;5084450;28;20444;-80
2023/12/31 10:21:16;;;;;;;17.90;17.10;;;;;;;;;;5092631;28;20498;-82
2023/12/31 10:23:43;;;;;;;20.47;19.40;;;;;;;;;;5093412;28;21150;-76
2023/12/31 10:26:10;;;;;;;18.50;17.60;;;;;;;;;;5096519;28;20446;-81
2023/12/31 10:28:40;;;;;;;19.73;18.80;;;;;;;;;;5096658;28;20465;-82
2023/12/31 10:31:07;;;;;;;18.10;17.30;;;;;;;;;;5090384;28;20809;-84
2023/12/31 10:33:37;;;;;;;19.40;18.20;;;;;;;;;;5090561;28;20517;-77
2023/12/31 10:36:04;;;;;;;18.30;17.33;;;;;;;;;;5088238;28;21074;-78
2023/12/31 10:38:42;;;;;;;18.70;17.90;;;;;;;;;;5075110;28;20993;-77
2023/12/31 10:41:14;;;;;;;19.43;18.43;;;;;;;;;;5075805;28;20814;-77
2023/12/31 10:43:42;;;;;;;19.37;18.27;;;;;;;;;;5080764;28;20450;-82
2023/12/31 10:46:11;;;;;;;18.53;17.63;;;;;;;;;;5083222;28;20448;-85
2023/12/31 10:48:39;;;;;;;20.03;19.03;;;;;;;;;;5097577;28;20448;-81
2023/12/31 10:51:07;;;;;;;19.83;18.77;;;;;;;;;;5097560;28;20448;-81
2023/12/31 10:53:39;;;;;;;19.57;18.50;;;;;;;;;;5093703;28;20499;-78
2023/12/31 10:56:06;;;;;;;18.90;18.00;;;;;;;;;;5090558;28;20476;-78
2023/12/31 10:58:34;;;;;;;20.13;18.73;;;;;;;;;;5091381;28;20441;-79
2023/12/31 11:01:03;;;;;;;18.50;17.53;;;;;;;;;;5088159;28;20482;-78
2023/12/31 11:03:33;;;;;;;18.87;17.97;;;;;;;;;;5069776;28;20416;-79
2023/12/31 11:06:03;;;;;;;20.70;19.60;;;;;;;;;;5072206;28;21183;-76
2023/12/31 11:08:56;;;;;;;19.30;18.40;;;;;;;;;;5072595;28;20476;-76
2023/12/31 11:11:24;;;;;;;20.13;19.03;;;;;;;;;;5090496;28;20488;-77
2023/12/31 11:13:52;;;;;;;19.47;18.30;;;;;;;;;;5093061;28;20498;-77
2023/12/31 11:16:28;;;;;;;19.87;18.60;;;;;;;;;;5092974;28;20532;-77
2023/12/31 11:19:07;;;;;;;18.77;17.60;;;;;;;;;;5092973;28;20875;-77
2023/12/31 11:21:41;;;;;;;19.40;18.40;;;;;;;;;;5092565;28;20848;-77
2023/12/31 11:24:14;;;;;;;19.70;18.50;;;;;;;;;;5093068;28;20432;-78
2023/12/31 11:26:41;;;;;;;19.37;18.27;;;;;;;;;;5093044;28;20468;-77
2023/12/31 11:29:10;;;;;;;19.77;18.77;;;;;;;;;;5092763;28;20498;-77
2023/12/31 11:31:41;;;;;;;19.07;18.17;;;;;;;;;;5091961;28;20981;-76
2023/12/31 11:34:09;;;;;;;20.00;19.00;;;;;;;;;;5092649;28;20425;-76
2023/12/31 11:36:36;;;;;;;19.60;18.40;;;;;;;;;;5092533;28;20512;-77
2023/12/31 11:39:06;;;;;;;19.00;18.03;;;;;;;;;;5091603;28;20478;-76
2023/12/31 11:41:33;;;;;;;18.97;18.07;;;;;;;;;;5091985;28;20463;-76
2023/12/31 11:44:00;;;;;;;20.43;19.37;;;;;;;;;;5092137;28;20498;-76
2023/12/31 11:46:34;;;;;;;19.23;18.33;;;;;;;;;;5092021;28;21040;-76
2023/12/31 11:49:03;;;;;;;20.07;18.97;;;;;;;;;;5092342;28;21283;-76
2023/12/31 11:51:30;;;;;;;19.83;18.87;;;;;;;;;;5081655;28;20450;-76
2023/12/31 11:53:59;;;;;;;20.60;19.50;;;;;;;;;;5072076;28;20477;-76
2023/12/31 11:56:29;;;;;;;20.13;19.13;;;;;;;;;;5074831;28;20558;-76
2023/12/31 11:58:56;;;;;;;19.23;18.27;;;;;;;;;;5094618;28;20448;-81
2023/12/31 12:01:23;;;;;;;20.13;19.13;;;;;;;;;;5099205;28;20464;-83
2023/12/31 12:03:50;;;;;;;19.60;18.60;;;;;;;;;;5095901;28;20453;-76
2023/12/31 12:06:19;;;;;;;20.47;19.47;;;;;;;;;;5091801;28;20441;-77
2023/12/31 12:08:46;;;;;;;20.20;19.20;;;;;;;;;;5091616;28;20980;-77
2023/12/31 12:11:14;;;;;;;20.10;19.10;;;;;;;;;;5091389;28;20461;-76
2023/12/31 12:13:41;;;;;;;20.10;19.10;;;;;;;;;;5091543;28;20538;-76
2023/12/31 12:16:08;;;;;;;19.40;18.40;;;;;;;;;;5091377;28;20462;-76
2023/12/31 12:18:35;;;;;;;20.40;19.30;;;;;;;;;;5091465;28;20514;-75
2023/12/31 12:21:03;;;;;;;19.93;19.00;;;;;;;;;;5090162;28;21218;-76
2023/12/31 12:23:31;;;;;;;21.67;19.93;;;;;;;;;;5091396;28;20431;-76
2023/12/31 12:25:59;;;;;;;20.77;19.70;;;;;;;;;;5089358;28;20448;-76
2023/12/31 12:28:27;;;;;;;19.60;18.60;;;;;;;;;;5071279;28;20455;-78
2023/12/31 12:30:54;;;;;;;20.03;19.03;;;;;;;;;;5070656;28;20776;-77
2023/12/31 12:33:21;;;;;;;20.10;19.10;;;;;;;;;;5071482;28;20528;-77
2023/12/31 12:35:48;;;;;;;20.43;19.43;;;;;;;;;;5071069;28;20489;-77
2023/12/31 12:38:15;;;;;;;20.57;19.57;;;;;;;;;;5071035;28;20436;-77
2023/12/31 12:40:43;;;;;;;20.33;19.13;;;;;;;;;;5070765;28;20439;-76
2023/12/31 12:43:13;;;;;;;20.70;19.60;;;;;;;;;;5070588;28;20470;-76
2023/12/31 12:45:41;;;;;;;19.60;18.50;;;;;;;;;;5071567;28;20507;-76
2023/12/31 12:48:09;;;;;;;17.50;16.70;;;;;;;;;;5071051;28;20477;-76
2023/12/31 12:50:36;;;;;;;19.90;18.90;;;;;;;;;;5070603;28;20458;-77
2023/12/31 12:53:03;;;;;;;19.90;18.90;;;;;;;;;;5070843;28;20853;-76
2023/12/31 12:55:30;;;;;;;20.17;19.17;;;;;;;;;;5070832;28;21070;-77
2023/12/31 12:57:58;;;;;;;19.57;18.57;;;;;;;;;;5070853;28;20470;-76
2023/12/31 13:00:26;;;;;;;18.97;17.87;;;;;;;;;;5076236;28;20457;-76
2023/12/31 13:02:53;;;;;;;18.70;17.90;;;;;;;;;;5090793;28;20448;-77
2023/12/31 13:05:20;;;;;;;19.37;18.47;;;;;;;;;;5089501;28;20791;-77
2023/12/31 13:07:47;;;;;;;18.30;17.40;;;;;;;;;;5090925;28;20885;-77
2023/12/31 13:10:14;;;;;;;19.20;18.30;;;;;;;;;;5090671;28;20460;-77
2023/12/31 13:12:41;;;;;;;19.57;18.57;;;;;;;;;;5090047;28;20444;-77
2023/12/31 13:15:10;;;;;;;18.20;17.40;;;;;;;;;;5090429;28;20449;-77
2023/12/31 13:17:37;;;;;;;19.23;18.33;;;;;;;;;;5090032;28;20496;-77
2023/12/31 13:20:05;;;;;;;17.73;17.00;;;;;;;;;;5090490;28;20476;-76
2023/12/31 13:22:32;;;;;;;19.40;18.50;;;;;;;;;;5089526;28;20459;-77
2023/12/31 13:24:59;;;;;;;18.53;17.60;;;;;;;;;;5090337;28;20498;-76
2023/12/31 13:27:28;;;;;;;19.30;18.40;;;;;;;;;;5090034;28;20973;-77
2023/12/31 13:29:55;;;;;;;18.97;18.07;;;;;;;;;;5090547;28;20963;-76
2023/12/31 13:32:23;;;;;;;18.50;17.70;;;;;;;;;;5073543;28;20980;-77
2023/12/31 13:34:50;;;;;;;18.63;17.83;;;;;;;;;;5070135;28;20520;-77
2023/12/31 13:37:17;;;;;;;20.10;19.20;;;;;;;;;;5069882;28;20489;-77
2023/12/31 13:39:44;;;;;;;19.20;18.20;;;;;;;;;;5069950;28;20987;-77
2023/12/31 13:42:11;;;;;;;18.87;17.87;;;;;;;;;;5069110;28;20945;-77
2023/12/31 13:44:38;;;;;;;19.33;18.33;;;;;;;;;;5069892;28;20441;-77
2023/12/31 13:47:05;;;;;;;20.33;19.33;;;;;;;;;;5069833;28;20474;-77
2023/12/31 13:49:34;;;;;;;18.03;17.07;;;;;;;;;;5069675;28;20984;-77
2023/12/31 13:52:01;;;;;;;19.23;18.27;;;;;;;;;;5069295;28;20479;-78
2023/12/31 13:54:28;;;;;;;18.93;17.93;;;;;;;;;;5069890;28;20583;-77
2023/12/31 13:56:55;;;;;;;18.20;17.30;;;;;;;;;;5081188;28;20475;-77
2023/12/31 13:59:22;;;;;;;19.10;18.20;;;;;;;;;;5090272;28;20531;-77
2023/12/31 14:01:49;;;;;;;19.50;18.60;;;;;;;;;;5090143;28;20463;-84
2023/12/31 14:04:16;;;;;;;18.30;17.50;;;;;;;;;;5094690;28;20518;-84
2023/12/31 14:06:45;;;;;;;17.37;16.63;;;;;;;;;;5077998;28;20457;-81
2023/12/31 14:09:13;;;;;;;17.77;17.00;;;;;;;;;;5081809;28;20479;-79
2023/12/31 14:11:41;;;;;;;17.20;16.50;;;;;;;;;;5085798;28;20455;-79
2023/12/31 14:14:08;;;;;;;16.10;15.47;;;;;;;;;;5075855;28;20548;-77
2023/12/31 14:16:35;;;;;;;17.80;17.10;;;;;;;;;;5087177;28;20531;-76
2023/12/31 14:19:04;;;;;;;17.10;16.40;;;;;;;;;;5090022;28;20471;-78